createdAt,value
2022-07-27T00:05:24.787Z,12.05
2022-07-27T00:15:27.072Z,10.85
2022-07-27T00:25:29.452Z,7.72
2022-07-27T00:35:32.216Z,13.38
2022-07-27T00:45:39.513Z,10.55
2022-07-27T00:55:41.678Z,8.15
2022-07-27T01:05:47.960Z,9.35
2022-07-27T01:15:52.584Z,5.85
2022-07-27T01:25:57.438Z,5.90
2022-07-27T01:35:59.632Z,7.32
2022-07-27T01:46:04.417Z,6.95
2022-07-27T01:56:13.518Z,5.57
2022-07-27T02:06:15.789Z,5.97
2022-07-27T02:16:20.942Z,4.85
2022-07-27T02:26:28.422Z,4.13
2022-07-27T02:36:32.551Z,5.70
2022-07-27T02:46:34.635Z,4.25
2022-07-27T02:56:41.424Z,4.15
2022-07-27T03:06:43.716Z,5.38
2022-07-27T03:16:52.525Z,7.53
2022-07-27T03:26:54.690Z,6.72
2022-07-27T03:36:59.258Z,5.68
2022-07-27T03:47:01.376Z,5.13
2022-07-27T03:57:03.417Z,4.75
2022-07-27T04:07:08.160Z,4.88
2022-07-27T04:17:10.315Z,6.22
2022-07-27T04:27:15.030Z,5.22
2022-07-27T04:37:18.024Z,4.60
2022-07-27T04:47:20.114Z,3.55
2022-07-27T04:57:23.517Z,5.22
2022-07-27T05:07:27.951Z,4.55
2022-07-27T05:17:29.941Z,2.42
2022-07-27T05:27:37.657Z,5.80
2022-07-27T05:38:01.337Z,5.18
2022-07-27T05:48:05.804Z,6.93
2022-07-27T05:58:11.010Z,4.63
2022-07-27T06:08:13.267Z,3.90
2022-07-27T06:18:21.480Z,1.67
2022-07-27T06:28:26.085Z,4.75
2022-07-27T06:38:30.710Z,4.47
2022-07-27T06:48:33.046Z,1.92
2022-07-27T06:58:37.795Z,3.28
2022-07-27T07:08:40.923Z,5.85
2022-07-27T07:18:43.341Z,3.92
2022-07-27T07:28:46.873Z,3.15
2022-07-27T07:38:51.200Z,4.93
2022-07-27T07:48:53.377Z,3.03
2022-07-27T07:58:58.029Z,3.17
2022-07-27T08:09:02.666Z,2.53
2022-07-27T08:19:04.943Z,5.55
2022-07-27T08:29:11.077Z,3.13
2022-07-27T08:40:05.649Z,2.45
2022-07-27T08:49:44.256Z,3.38
2022-07-27T08:59:47.430Z,4.13
2022-07-27T09:09:49.652Z,4.65
2022-07-27T09:19:58.081Z,3.45
2022-07-27T09:30:13.079Z,4.65
2022-07-27T09:40:25.671Z,3.05
2022-07-27T09:50:35.765Z,2.20
2022-07-27T10:00:41.010Z,2.88
2022-07-27T10:10:44.450Z,3.38
2022-07-27T10:20:48.175Z,4.60
2022-07-27T10:30:54.425Z,3.58
2022-07-27T10:41:24.963Z,3.17
2022-07-27T10:51:37.810Z,3.50
2022-07-27T11:01:57.393Z,5.03
2022-07-27T11:12:04.376Z,3.10
2022-07-27T11:22:28.305Z,1.98
2022-07-27T11:32:36.330Z,3.17
2022-07-27T11:42:39.196Z,5.15
2022-07-27T11:53:01.109Z,2.13
2022-07-27T12:03:04.860Z,1.42
2022-07-27T12:13:09.679Z,2.38
2022-07-27T12:23:15.348Z,1.95
2022-07-27T12:33:38.629Z,4.50
2022-07-27T12:43:42.955Z,4.65
2022-07-27T12:53:48.033Z,2.15
2022-07-27T13:03:52.417Z,4.22
2022-07-27T13:13:56.900Z,3.05
2022-07-27T13:24:02.952Z,2.35
2022-07-27T13:34:07.653Z,5.97
2022-07-27T13:44:35.689Z,4.07
2022-07-27T13:54:35.481Z,3.92
2022-07-27T14:04:39.131Z,4.63
2022-07-27T14:14:43.757Z,3.90
2022-07-27T14:24:48.125Z,3.35
2022-07-27T14:34:50.324Z,2.67
2022-07-27T14:44:54.866Z,3.00
2022-07-27T14:54:59.778Z,2.67
2022-07-27T15:05:01.861Z,3.17
2022-07-27T15:15:08.903Z,3.85
2022-07-27T15:25:12.476Z,4.80
2022-07-27T15:35:14.730Z,4.57
2022-07-27T15:45:21.592Z,2.60
2022-07-27T15:55:29.349Z,4.05
2022-07-27T16:05:36.370Z,4.28
2022-07-27T16:16:01.733Z,3.35
2022-07-27T16:26:07.287Z,4.05
2022-07-27T16:36:10.089Z,3.25
2022-07-27T16:46:14.721Z,3.17
2022-07-27T16:56:17.271Z,2.78
2022-07-27T17:06:21.792Z,1.85
2022-07-27T17:16:29.035Z,4.55
2022-07-27T17:26:34.481Z,3.15
2022-07-27T17:36:41.924Z,2.42
2022-07-27T17:46:44.949Z,2.67
2022-07-27T17:56:47.047Z,8.18
2022-07-27T18:06:51.538Z,2.78
2022-07-27T18:16:55.154Z,5.10
2022-07-27T18:27:00.338Z,4.93
2022-07-27T18:37:07.441Z,4.50
2022-07-27T18:47:10.576Z,4.40
2022-07-27T18:57:15.216Z,5.25
2022-07-27T19:07:18.515Z,4.60
2022-07-27T19:17:22.915Z,3.25
2022-07-27T19:27:28.720Z,6.18
2022-07-27T19:37:33.486Z,4.55
2022-07-27T19:47:42.612Z,3.83
2022-07-27T19:57:53.887Z,4.47
2022-07-27T20:08:01.261Z,6.80
2022-07-27T20:18:04.808Z,3.08
2022-07-27T20:28:09.692Z,6.40
2022-07-27T20:38:16.528Z,6.20
2022-07-27T20:48:25.512Z,3.70
2022-07-27T20:58:31.116Z,4.15
2022-07-27T21:08:33.217Z,3.67
2022-07-27T21:18:35.987Z,3.38
2022-07-27T21:28:38.089Z,3.95
2022-07-27T21:38:49.017Z,2.53
2022-07-27T21:48:54.057Z,2.55
2022-07-27T21:59:03.078Z,2.17
2022-07-27T22:09:08.838Z,4.72
2022-07-27T22:19:10.886Z,2.78
2022-07-27T22:29:13.345Z,4.32
2022-07-27T22:39:17.139Z,2.42
2022-07-27T22:49:19.342Z,3.78
2022-07-27T22:59:21.491Z,2.75
2022-07-27T23:09:24.133Z,4.85
2022-07-27T23:19:26.323Z,3.88
2022-07-27T23:29:34.417Z,4.95
2022-07-27T23:39:36.712Z,4.93
2022-07-27T23:49:40.152Z,3.97
2022-07-27T23:59:47.043Z,2.85
